createdAt,value
2016-05-18T00:00:59.478Z,85.1
2016-05-18T00:01:59.636Z,85.66
2016-05-18T00:02:59.640Z,86.24
2016-05-18T00:03:59.471Z,85.76
2016-05-18T00:04:59.474Z,85.76
2016-05-18T00:05:59.633Z,85.86
2016-05-18T00:06:59.619Z,85.76
2016-05-18T00:07:59.638Z,85.57
2016-05-18T00:08:59.624Z,86.52
2016-05-18T00:09:59.627Z,85.95
2016-05-18T00:10:59.630Z,86.14
2016-05-18T00:11:59.633Z,85.95
2016-05-18T00:12:59.479Z,86.14
2016-05-18T00:13:59.623Z,86.33
2016-05-18T00:14:59.626Z,86.14
2016-05-18T00:15:59.628Z,86.71
2016-05-18T00:16:59.631Z,86.61
2016-05-18T00:17:59.618Z,86.43
2016-05-18T00:18:59.637Z,86.33
2016-05-18T00:20:00.279Z,86.33
2016-05-18T00:20:59.470Z,86.43
2016-05-18T00:21:59.628Z,87.09
2016-05-18T00:22:59.631Z,86.99
2016-05-18T00:23:59.618Z,86.8
2016-05-18T00:24:59.620Z,86.8
2016-05-18T00:25:59.624Z,86.99
2016-05-18T00:26:59.626Z,86.8
2016-05-18T00:27:59.628Z,86.9
2016-05-18T00:28:59.631Z,86.8
2016-05-18T00:29:59.619Z,86.99
2016-05-18T00:30:59.622Z,86.61
2016-05-18T00:31:59.639Z,86.52
2016-05-18T00:32:59.628Z,86.52
2016-05-18T00:33:59.614Z,86.71
2016-05-18T00:34:59.616Z,86.9
2016-05-18T00:35:59.619Z,87.38
2016-05-18T00:36:59.622Z,87.19
2016-05-18T00:37:59.468Z,87.19
2016-05-18T00:38:59.628Z,86.99
2016-05-18T00:39:59.614Z,87.09
2016-05-18T00:40:59.460Z,87.09
2016-05-18T00:41:59.605Z,87.28
2016-05-18T00:42:59.607Z,87.38
2016-05-18T00:43:59.609Z,87.28
2016-05-18T00:44:59.628Z,87.09
2016-05-18T00:45:59.459Z,87.47
2016-05-18T00:46:59.618Z,87.57
2016-05-18T00:47:59.604Z,87.57
2016-05-18T00:48:59.607Z,87.66
2016-05-18T00:49:59.609Z,87.95
2016-05-18T00:50:59.457Z,87.76
2016-05-18T00:51:59.600Z,87.76
2016-05-18T00:52:59.618Z,88.52
2016-05-18T00:53:59.449Z,88.47
2016-05-18T00:54:59.608Z,88.42
2016-05-18T00:55:59.611Z,88.28
2016-05-18T00:56:59.613Z,88.09
2016-05-18T00:57:59.600Z,88.38
2016-05-18T00:58:59.619Z,88.28
2016-05-18T00:59:59.606Z,88.28
2016-05-18T01:00:59.608Z,88.47
2016-05-18T01:01:59.611Z,88.52
2016-05-18T01:02:59.598Z,88.47
2016-05-18T01:03:59.600Z,88.61
2016-05-18T01:04:59.603Z,88.61
2016-05-18T01:05:59.606Z,88.52
2016-05-18T01:06:59.609Z,88.52
2016-05-18T01:07:59.611Z,88.52
2016-05-18T01:08:59.599Z,88.42
2016-05-18T01:09:59.602Z,88.71
2016-05-18T01:10:59.604Z,88.61
2016-05-18T01:11:59.607Z,88.61
2016-05-18T01:12:59.437Z,88.52
2016-05-18T01:13:59.597Z,88.61
2016-05-18T01:14:59.599Z,88.42
2016-05-18T01:15:59.445Z,88.52
2016-05-18T01:16:59.604Z,88.52
2016-05-18T01:17:59.435Z,88.38
2016-05-18T01:18:59.594Z,88.71
2016-05-18T01:19:59.596Z,88.85
2016-05-18T01:20:59.444Z,88.95
2016-05-18T01:21:59.587Z,88.47
2016-05-18T01:22:59.605Z,88.57
2016-05-18T01:23:59.592Z,88.95
2016-05-18T01:24:59.438Z,88.57
2016-05-18T01:25:59.598Z,88.76
2016-05-18T01:26:59.600Z,88.76
2016-05-18T01:27:59.587Z,88.47
2016-05-18T01:28:59.434Z,88.47
2016-05-18T01:29:59.592Z,88.67
2016-05-18T01:30:59.595Z,88.85
2016-05-18T01:31:59.441Z,89.04
2016-05-18T01:32:59.429Z,89.04
2016-05-18T01:33:59.588Z,89.04
2016-05-18T01:34:59.575Z,89.04
2016-05-18T01:35:59.577Z,88.76
2016-05-18T01:36:59.580Z,88.95
2016-05-18T01:37:59.583Z,88.85
2016-05-18T01:38:59.585Z,89.04
2016-05-18T01:39:59.588Z,88.9
2016-05-18T01:40:59.591Z,88.76
2016-05-18T01:41:59.578Z,88.76
2016-05-18T01:42:59.596Z,89.19
2016-05-18T01:43:59.583Z,88.81
2016-05-18T01:44:59.586Z,89.47
2016-05-18T01:45:59.573Z,89.47
2016-05-18T01:46:59.419Z,89.28
2016-05-18T01:47:59.579Z,89.47
2016-05-18T01:48:59.582Z,89.38
2016-05-18T01:49:59.584Z,89.57
2016-05-18T01:50:59.571Z,89.67
2016-05-18T01:51:59.573Z,89.57
2016-05-18T01:52:59.435Z,89.38
2016-05-18T01:53:59.579Z,89.67
2016-05-18T01:54:59.581Z,89.67
2016-05-18T01:55:59.568Z,90.23
2016-05-18T01:56:59.571Z,89.86
2016-05-18T01:57:59.574Z,90.33
2016-05-18T01:58:59.561Z,90.42
2016-05-18T01:59:59.564Z,90.33
2016-05-18T02:00:59.411Z,90.52
2016-05-18T02:01:59.569Z,90.71
2016-05-18T02:02:59.573Z,90.8
2016-05-18T02:03:59.575Z,90.61
2016-05-18T02:04:59.577Z,90.71
2016-05-18T02:05:59.580Z,90.71
2016-05-18T02:06:59.567Z,90.99
2016-05-18T02:07:59.835Z,90.71
2016-05-18T02:08:59.572Z,90.52
2016-05-18T02:09:59.560Z,90.9
2016-05-18T02:10:59.562Z,90.61
2016-05-18T02:11:59.566Z,91.19
2016-05-18T02:12:59.552Z,90.52
2016-05-18T02:13:59.554Z,90.71
2016-05-18T02:14:59.558Z,90.76
2016-05-18T02:15:59.560Z,90.47
2016-05-18T02:16:59.563Z,90.57
2016-05-18T02:17:59.565Z,90
2016-05-18T02:18:59.568Z,90.47
2016-05-18T02:19:59.555Z,90.85
2016-05-18T02:20:59.573Z,90.57
2016-05-18T02:21:59.545Z,90.57
2016-05-18T02:22:59.563Z,90.38
2016-05-18T02:23:59.551Z,90.38
2016-05-18T02:24:59.553Z,90.38
2016-05-18T02:25:59.556Z,90.52
2016-05-18T02:26:59.402Z,90.38
2016-05-18T02:27:59.576Z,90.52
2016-05-18T02:28:59.392Z,90.52
2016-05-18T02:29:59.550Z,91.28
2016-05-18T02:30:59.554Z,91.38
2016-05-18T02:31:59.556Z,91.09
2016-05-18T02:32:59.543Z,91.09
2016-05-18T02:33:59.545Z,91.19
2016-05-18T02:34:59.548Z,91.38
2016-05-18T02:35:59.395Z,91.38
2016-05-18T02:36:59.539Z,91.38
2016-05-18T02:37:59.541Z,91.09
2016-05-18T02:38:59.544Z,91.56
2016-05-18T02:39:59.547Z,91.47
2016-05-18T02:40:59.549Z,91.38
2016-05-18T02:41:59.536Z,91.38
2016-05-18T02:42:59.539Z,91.28
2016-05-18T02:43:59.541Z,91.28
2016-05-18T02:44:59.544Z,91.19
2016-05-18T02:45:59.531Z,91.09
2016-05-18T02:46:59.550Z,91.28
2016-05-18T02:47:59.537Z,91.28
2016-05-18T02:48:59.540Z,91.38
2016-05-18T02:49:59.526Z,91.56
2016-05-18T02:50:59.530Z,91.47
2016-05-18T02:51:59.532Z,91.94
2016-05-18T02:52:59.409Z,91.85
2016-05-18T02:53:59.538Z,91.56
2016-05-18T02:54:59.524Z,91.66
2016-05-18T02:55:59.542Z,91.75
2016-05-18T02:56:59.529Z,91.85
2016-05-18T02:57:59.532Z,91.94
2016-05-18T02:58:59.535Z,91.75
2016-05-18T02:59:59.522Z,92.14
2016-05-18T03:00:59.368Z,91.85
2016-05-18T03:01:59.528Z,91.66
2016-05-18T03:02:59.530Z,91.75
2016-05-18T03:03:59.533Z,92.33
2016-05-18T03:04:59.520Z,92.23
2016-05-18T03:05:59.523Z,92.04
2016-05-18T03:06:59.369Z,92.42
2016-05-18T03:07:59.528Z,92.42
2016-05-18T03:08:59.358Z,92.14
2016-05-18T03:09:59.361Z,92.23
2016-05-18T03:10:59.520Z,92.33
2016-05-18T03:11:59.507Z,92.61
2016-05-18T03:12:59.511Z,92.52
2016-05-18T03:13:59.513Z,92.42
2016-05-18T03:14:59.515Z,92.42
2016-05-18T03:15:59.518Z,92.23
2016-05-18T03:16:59.505Z,92.42
2016-05-18T03:17:59.508Z,92.33
2016-05-18T03:18:59.510Z,92.14
2016-05-18T03:19:59.358Z,92.52
2016-05-18T03:20:59.516Z,92.47
2016-05-18T03:21:59.518Z,92.57
2016-05-18T03:22:59.787Z,92.18
2016-05-18T03:23:59.508Z,92.38
2016-05-18T03:24:59.512Z,92.09
2016-05-18T03:25:59.357Z,92.09
2016-05-18T03:26:59.501Z,91.9
2016-05-18T03:27:59.348Z,92.18
2016-05-18T03:28:59.506Z,92.28
2016-05-18T03:29:59.509Z,92.28
2016-05-18T03:30:59.496Z,92.57
2016-05-18T03:31:59.515Z,92.76
2016-05-18T03:32:59.501Z,92.76
2016-05-18T03:33:59.504Z,92.66
2016-05-18T03:34:59.506Z,93.32
2016-05-18T03:35:59.353Z,93.32
2016-05-18T03:36:59.497Z,92.94
2016-05-18T03:37:59.499Z,93.04
2016-05-18T03:38:59.503Z,93.32
2016-05-18T03:39:59.488Z,92.76
2016-05-18T03:40:59.491Z,92.94
2016-05-18T03:41:59.494Z,92.94
2016-05-18T03:42:59.497Z,92.94
2016-05-18T03:43:59.484Z,93.04
2016-05-18T03:44:59.487Z,93.13
2016-05-18T03:45:59.489Z,93.32
2016-05-18T03:46:59.477Z,93.46
2016-05-18T03:47:59.495Z,93.32
2016-05-18T03:48:59.482Z,93.37
2016-05-18T03:49:59.485Z,93.37
2016-05-18T03:50:59.488Z,93.32
2016-05-18T03:51:59.490Z,93.37
2016-05-18T03:52:59.493Z,93.56
2016-05-18T03:53:59.479Z,93.56
2016-05-18T03:54:59.483Z,93.37
2016-05-18T03:55:59.485Z,93.37
2016-05-18T03:56:59.473Z,93.46
2016-05-18T03:57:59.476Z,93.27
2016-05-18T03:58:59.478Z,93.27
2016-05-18T03:59:59.481Z,93.27
2016-05-18T04:00:59.483Z,93.27
2016-05-18T04:01:59.470Z,93.08
2016-05-18T04:02:59.489Z,93.37
2016-05-18T04:03:59.476Z,93.08
2016-05-18T04:04:59.478Z,93.56
2016-05-18T04:05:59.465Z,93.56
2016-05-18T04:06:59.468Z,93.37
2016-05-18T04:07:59.736Z,93.56
2016-05-18T04:08:59.473Z,93.65
2016-05-18T04:09:59.476Z,93.65
2016-05-18T04:10:59.463Z,93.56
2016-05-18T04:11:59.466Z,93.65
2016-05-18T04:12:59.469Z,93.27
2016-05-18T04:13:59.456Z,93.27
2016-05-18T04:14:59.474Z,93.75
2016-05-18T04:15:59.477Z,93.84
2016-05-18T04:16:59.463Z,93.75
2016-05-18T04:17:59.450Z,93.94
2016-05-18T04:18:59.453Z,93.84
2016-05-18T04:19:59.455Z,93.84
2016-05-18T04:20:59.459Z,94.03
2016-05-18T04:21:59.461Z,93.94
2016-05-18T04:22:59.449Z,93.94
2016-05-18T04:23:59.451Z,93.56
2016-05-18T04:24:59.469Z,93.65
2016-05-18T04:25:59.457Z,93.75
2016-05-18T04:26:59.459Z,93.56
2016-05-18T04:27:59.447Z,93.56
2016-05-18T04:28:59.449Z,93.75
2016-05-18T04:29:59.451Z,93.89
2016-05-18T04:30:59.470Z,94.08
2016-05-18T04:31:59.441Z,94.27
2016-05-18T04:32:59.444Z,94.18
2016-05-18T04:33:59.447Z,94.08
2016-05-18T04:34:59.450Z,94.18
2016-05-18T04:35:59.296Z,93.89
2016-05-18T04:36:59.471Z,94.46
2016-05-18T04:37:59.301Z,94.32
2016-05-18T04:38:59.445Z,94.79
2016-05-18T04:39:59.448Z,94.79
2016-05-18T04:40:59.434Z,94.89
2016-05-18T04:41:59.453Z,94.84
2016-05-18T04:42:59.455Z,95.12
2016-05-18T04:43:59.442Z,95.98
2016-05-18T04:44:59.289Z,95.98
2016-05-18T04:45:59.433Z,95.98
2016-05-18T04:46:59.435Z,96.12
2016-05-18T04:47:59.438Z,95.61
2016-05-18T04:48:59.440Z,95.37
2016-05-18T04:49:59.443Z,94.7
2016-05-18T04:50:59.289Z,93.02
2016-05-18T04:51:59.433Z,91.45
2016-05-18T04:52:59.905Z,89.34
2016-05-18T04:53:59.438Z,87.48
2016-05-18T04:54:59.441Z,84.75
2016-05-18T04:55:59.427Z,81.34
2016-05-18T04:56:59.446Z,78.03
2016-05-18T04:57:59.448Z,74.43
2016-05-18T04:58:59.296Z,71.66
2016-05-18T04:59:59.454Z,67.57
2016-05-18T05:00:59.457Z,63.57
2016-05-18T05:01:59.444Z,60.7
2016-05-18T05:02:59.446Z,58.42
2016-05-18T05:03:59.449Z,55.67
2016-05-18T05:04:59.436Z,53.85
2016-05-18T05:05:59.454Z,51.95
2016-05-18T05:06:59.457Z,50.32
2016-05-18T05:07:59.725Z,49.29
2016-05-18T05:08:59.447Z,48.43
2016-05-18T05:09:59.451Z,45.47
2016-05-18T05:10:59.452Z,44.43
2016-05-18T05:11:59.455Z,42.72
2016-05-18T05:12:59.442Z,41.56
2016-05-18T05:13:59.461Z,40.63
2016-05-18T05:14:59.463Z,39.49
2016-05-18T05:15:59.466Z,38.72
2016-05-18T05:16:59.469Z,37.58
2016-05-18T05:17:59.456Z,36.25
2016-05-18T05:18:59.475Z,35.58
2016-05-18T05:19:59.321Z,34.53
2016-05-18T05:20:59.463Z,33.78
2016-05-18T05:21:59.482Z,32.82
2016-05-18T05:22:59.485Z,31.4
2016-05-18T05:23:59.488Z,30.91
2016-05-18T05:24:59.491Z,30.33
2016-05-18T05:25:59.493Z,29.96
2016-05-18T05:26:59.496Z,28.91
2016-05-18T05:27:59.498Z,28.44
2016-05-18T05:28:59.502Z,27.29
2016-05-18T05:29:59.504Z,26.43
2016-05-18T05:30:59.506Z,26.15
2016-05-18T05:31:59.509Z,25.37
2016-05-18T05:32:59.559Z,25.19
2016-05-18T05:33:59.515Z,24.62
2016-05-18T05:34:59.517Z,24.13
2016-05-18T05:35:59.535Z,23.66
2016-05-18T05:36:59.522Z,23.08
2016-05-18T05:37:59.885Z,22.22
2016-05-18T05:38:59.528Z,21.55
2016-05-18T05:39:59.546Z,21.17
2016-05-18T05:40:59.549Z,20.88
2016-05-18T05:41:59.536Z,20.4
2016-05-18T05:42:59.554Z,20.5
2016-05-18T05:43:59.541Z,19.82
2016-05-18T05:44:59.559Z,19.83
2016-05-18T05:45:59.406Z,19.35
2016-05-18T05:46:59.564Z,19.15
2016-05-18T05:47:59.567Z,18.58
2016-05-18T05:48:59.570Z,18.29
2016-05-18T05:49:59.588Z,17.9
2016-05-18T05:50:59.591Z,18.1
2016-05-18T05:51:59.594Z,17.33
2016-05-18T05:52:59.909Z,17.44
2016-05-18T05:53:59.599Z,16.76
2016-05-18T05:54:59.602Z,15.98
2016-05-18T05:55:59.621Z,15.99
2016-05-18T05:56:59.624Z,16.09
2016-05-18T05:57:59.627Z,15.7
2016-05-18T05:58:59.629Z,15.41
2016-05-18T05:59:59.474Z,14.83
2016-05-18T06:00:59.634Z,14.73
2016-05-18T06:01:59.652Z,14.84
2016-05-18T06:02:59.655Z,14.17
2016-05-18T06:03:59.657Z,13.97
2016-05-18T06:04:59.660Z,13.58
2016-05-18T06:05:59.679Z,13.78
2016-05-18T06:06:59.681Z,14.25
2016-05-18T06:07:59.621Z,14.15
2016-05-18T06:08:59.531Z,14.34
2016-05-18T06:09:59.705Z,14.92
2016-05-18T06:10:59.692Z,14.81
2016-05-18T06:11:59.554Z,15.3
2016-05-18T06:12:59.713Z,15.01
2016-05-18T06:13:59.731Z,15.19
2016-05-18T06:14:59.733Z,15.29
2016-05-18T06:15:59.736Z,15.29
2016-05-18T06:16:59.740Z,15.39
2016-05-18T06:17:59.758Z,15.09
2016-05-18T06:18:59.760Z,15.11
2016-05-18T06:19:59.607Z,14.81
2016-05-18T06:20:59.766Z,14.32
2016-05-18T06:21:59.769Z,14.72
2016-05-18T06:22:59.786Z,14.92
2016-05-18T06:23:59.789Z,14.81
2016-05-18T06:24:59.792Z,14.81
2016-05-18T06:25:59.654Z,14.91
2016-05-18T06:26:59.813Z,14.81
2016-05-18T06:27:59.832Z,14.33
2016-05-18T06:28:59.834Z,13.56
2016-05-18T06:29:59.680Z,13.85
2016-05-18T06:30:59.840Z,13.57
2016-05-18T06:31:59.842Z,13.38
2016-05-18T06:32:59.860Z,12.9
2016-05-18T06:33:59.863Z,12.61
2016-05-18T06:34:59.866Z,12.31
2016-05-18T06:35:59.885Z,11.83
2016-05-18T06:36:59.887Z,11.25
2016-05-18T06:38:00.109Z,10.97
2016-05-18T06:38:59.908Z,10.68
2016-05-18T06:39:59.911Z,10.97
2016-05-18T06:40:59.929Z,10.58
2016-05-18T06:41:59.917Z,10.97
2016-05-18T06:42:59.778Z,10.87
2016-05-18T06:43:59.936Z,10.68
2016-05-18T06:44:59.955Z,10.77
2016-05-18T06:45:59.958Z,10.97
2016-05-18T06:46:59.961Z,10.58
2016-05-18T06:47:59.963Z,10.28
2016-05-18T06:48:59.982Z,10.28
2016-05-18T06:50:00.000Z,10
2016-05-18T06:50:59.987Z,10
2016-05-18T06:52:00.006Z,10.29
2016-05-18T06:53:00.039Z,10
2016-05-18T06:54:00.027Z,10.1
2016-05-18T06:55:00.045Z,9.81
2016-05-18T06:56:00.047Z,9.03
2016-05-18T06:57:00.066Z,8.74
2016-05-18T06:58:00.085Z,8.54
2016-05-18T06:59:00.087Z,8.36
2016-05-18T07:00:00.090Z,7.87
2016-05-18T07:01:00.093Z,7.58
2016-05-18T07:02:00.095Z,7.48
2016-05-18T07:03:00.098Z,7.58
2016-05-18T07:04:00.132Z,7.48
2016-05-18T07:05:00.134Z,7.57
2016-05-18T07:06:00.137Z,7.38
2016-05-18T07:06:59.984Z,6.99
2016-05-18T07:08:00.361Z,6.79
2016-05-18T07:09:00.004Z,6.6
2016-05-18T07:10:00.179Z,6.51
2016-05-18T07:11:00.198Z,5.72
2016-05-18T07:12:00.184Z,5.63
2016-05-18T07:13:00.218Z,4.94
2016-05-18T07:14:00.205Z,5.43
2016-05-18T07:15:00.224Z,5.04
2016-05-18T07:16:00.242Z,5.04
2016-05-18T07:17:00.245Z,4.64
2016-05-18T07:18:00.263Z,4.25
2016-05-18T07:19:00.266Z,3.76
2016-05-18T07:20:00.269Z,4.06
2016-05-18T07:21:00.114Z,4.25
2016-05-18T07:22:00.289Z,4.06
2016-05-18T07:23:00.480Z,3.76
2016-05-18T07:24:00.310Z,3.56
2016-05-18T07:25:00.313Z,3.27
2016-05-18T07:26:00.331Z,2.87
2016-05-18T07:27:00.178Z,3.08
2016-05-18T07:28:00.352Z,2.78
2016-05-18T07:29:00.355Z,2.68
2016-05-18T07:30:00.374Z,2.68
2016-05-18T07:31:00.377Z,2.19
2016-05-18T07:32:00.395Z,2.09
2016-05-18T07:33:00.413Z,2.19
2016-05-18T07:34:00.415Z,2.19
2016-05-18T07:35:00.277Z,2.19
2016-05-18T07:36:00.437Z,2.09
2016-05-18T07:37:00.299Z,2.19
2016-05-18T07:38:00.301Z,2.19
2016-05-18T07:39:00.476Z,2.09
2016-05-18T07:40:00.493Z,2.09
2016-05-18T07:41:00.482Z,1.79
2016-05-18T07:42:00.343Z,1.89
2016-05-18T07:43:00.346Z,1.39
2016-05-18T07:44:00.520Z,1.98
2016-05-18T07:45:00.523Z,1.89
2016-05-18T07:46:00.651Z,1.89
2016-05-18T07:47:00.545Z,1.59
2016-05-18T07:48:00.562Z,1.09
2016-05-18T07:49:00.565Z,0.9
2016-05-18T07:50:00.583Z,0.1
2016-05-18T07:51:00.586Z,0
2016-05-18T07:52:00.605Z,0
2016-05-18T07:53:01.513Z,0
2016-05-18T07:54:00.625Z,0.1
2016-05-18T07:55:00.644Z,0.1
2016-05-18T07:56:00.631Z,0
2016-05-18T07:57:00.649Z,0
2016-05-18T07:58:00.652Z,0
2016-05-18T07:59:00.685Z,0
2016-05-18T08:00:00.689Z,0
2016-05-18T08:01:00.692Z,0
2016-05-18T08:02:00.710Z,0
2016-05-18T08:03:00.713Z,0
2016-05-18T08:04:00.730Z,0
2016-05-18T08:05:00.733Z,0
2016-05-18T08:06:00.752Z,0
2016-05-18T08:07:00.770Z,0
2016-05-18T08:08:01.413Z,0
2016-05-18T08:09:00.776Z,0
2016-05-18T08:10:00.794Z,0
2016-05-18T08:11:00.640Z,0
2016-05-18T08:12:00.815Z,0
2016-05-18T08:13:00.676Z,0
2016-05-18T08:14:00.835Z,0
2016-05-18T08:15:00.682Z,0
2016-05-18T08:16:00.856Z,0
2016-05-18T08:17:00.859Z,0
2016-05-18T08:18:00.892Z,0
2016-05-18T08:19:00.895Z,0
2016-05-18T08:20:00.898Z,0
2016-05-18T08:21:00.917Z,0
2016-05-18T08:22:00.920Z,0
2016-05-18T08:23:01.579Z,0
2016-05-18T08:24:00.941Z,0
2016-05-18T08:25:00.944Z,0
2016-05-18T08:26:00.962Z,0
2016-05-18T08:27:00.980Z,0
2016-05-18T08:28:00.837Z,0
2016-05-18T08:29:01.039Z,0
2016-05-18T08:30:01.098Z,0
2016-05-18T08:31:01.143Z,0
2016-05-18T08:32:01.204Z,0
2016-05-18T08:33:01.242Z,0
2016-05-18T08:34:01.276Z,0
2016-05-18T08:35:01.295Z,0
2016-05-18T08:36:01.171Z,0
2016-05-18T08:37:01.346Z,0
2016-05-18T08:38:01.377Z,0
2016-05-18T08:39:01.385Z,0
2016-05-18T08:40:01.409Z,0
2016-05-18T08:41:01.417Z,0
2016-05-18T08:42:01.440Z,0
2016-05-18T08:43:01.448Z,0
2016-05-18T08:44:01.469Z,0
2016-05-18T08:45:01.318Z,0
2016-05-18T08:46:01.479Z,0
2016-05-18T08:47:01.499Z,0
2016-05-18T08:48:01.503Z,0
2016-05-18T08:49:01.539Z,0
2016-05-18T08:50:01.526Z,0
2016-05-18T08:51:01.545Z,0
2016-05-18T08:52:01.533Z,0
2016-05-18T08:53:01.395Z,0
2016-05-18T08:54:01.570Z,0
2016-05-18T08:55:01.448Z,0
2016-05-18T08:56:01.592Z,0
2016-05-18T08:57:01.594Z,0
2016-05-18T08:58:01.613Z,0
2016-05-18T08:59:01.599Z,0
2016-05-18T09:00:01.618Z,0
2016-05-18T09:01:01.621Z,0
2016-05-18T09:02:01.638Z,0
2016-05-18T09:03:01.641Z,0
2016-05-18T09:04:01.660Z,0
2016-05-18T09:05:01.663Z,0
2016-05-18T09:06:01.665Z,0
2016-05-18T09:07:01.746Z,0
2016-05-18T09:08:01.701Z,0
2016-05-18T09:09:01.704Z,0
2016-05-18T09:10:01.707Z,0
2016-05-18T09:11:01.726Z,0
2016-05-18T09:12:01.728Z,0
2016-05-18T09:13:01.731Z,0
2016-05-18T09:14:01.734Z,0
2016-05-18T09:15:01.751Z,0
2016-05-18T09:16:01.754Z,0
2016-05-18T09:17:01.757Z,0
2016-05-18T09:18:01.776Z,0
2016-05-18T09:19:01.778Z,0
2016-05-18T09:20:01.781Z,0
2016-05-18T09:21:01.783Z,0
2016-05-18T09:22:01.786Z,0
2016-05-18T09:23:02.445Z,0
2016-05-18T09:24:01.808Z,0
2016-05-18T09:25:01.825Z,0
2016-05-18T09:26:01.813Z,0
2016-05-18T09:27:01.831Z,0
2016-05-18T09:28:01.833Z,0
2016-05-18T09:29:01.852Z,0
2016-05-18T09:30:01.854Z,0
2016-05-18T09:31:01.857Z,0
2016-05-18T09:32:01.860Z,0.2
2016-05-18T09:33:01.863Z,0.7
2016-05-18T09:34:01.880Z,1.59
2016-05-18T09:35:01.883Z,2.57
2016-05-18T09:36:01.886Z,3.16
2016-05-18T09:37:01.888Z,4.53
2016-05-18T09:38:02.220Z,5.41
2016-05-18T09:39:01.926Z,6.39
2016-05-18T09:40:01.913Z,7.07
2016-05-18T09:41:01.915Z,7.84
2016-05-18T09:42:01.934Z,9.01
2016-05-18T09:43:01.936Z,9.49
2016-05-18T09:44:01.939Z,10.25
2016-05-18T09:45:01.942Z,11.12
2016-05-18T09:46:01.960Z,12.28
2016-05-18T09:47:01.962Z,12.75
2016-05-18T09:48:01.809Z,13.23
2016-05-18T09:49:01.812Z,13.51
2016-05-18T09:50:01.814Z,14.87
2016-05-18T09:51:01.973Z,15.25
2016-05-18T09:52:01.992Z,15.72
2016-05-18T09:53:01.995Z,16.2
2016-05-18T09:54:01.997Z,16.78
2016-05-18T09:55:02.016Z,17.35
2016-05-18T09:56:02.003Z,18.01
2016-05-18T09:57:02.006Z,19.07
2016-05-18T09:58:02.024Z,19.64
2016-05-18T09:59:01.870Z,19.64
2016-05-18T10:00:01.872Z,19.35
2016-05-18T10:01:02.032Z,19.64
2016-05-18T10:02:01.878Z,19.83
2016-05-18T10:03:02.038Z,20.5
2016-05-18T10:04:02.055Z,20.79
2016-05-18T10:05:02.058Z,20.59
2016-05-18T10:06:02.061Z,20.59
2016-05-18T10:07:02.063Z,20.97
2016-05-18T10:08:01.910Z,21.07
2016-05-18T10:09:02.085Z,20.68
2016-05-18T10:10:01.931Z,20.97
2016-05-18T10:11:01.934Z,20.77
2016-05-18T10:12:02.093Z,21.06
2016-05-18T10:13:02.095Z,21.36
2016-05-18T10:14:02.098Z,21.07
2016-05-18T10:15:02.116Z,20.87
2016-05-18T10:16:02.118Z,21.65
2016-05-18T10:17:02.121Z,21.84
2016-05-18T10:18:01.968Z,21.85
2016-05-18T10:19:02.143Z,21.95
2016-05-18T10:20:02.129Z,22.72
2016-05-18T10:21:02.132Z,22.82
2016-05-18T10:22:02.135Z,22.03
2016-05-18T10:23:02.325Z,21.08
2016-05-18T10:24:02.203Z,20.68
2016-05-18T10:25:02.003Z,20.78
2016-05-18T10:26:02.161Z,20.97
2016-05-18T10:27:02.164Z,20.68
2016-05-18T10:28:02.167Z,20.5
2016-05-18T10:29:02.028Z,20.59
2016-05-18T10:30:02.172Z,20.39
2016-05-18T10:31:02.191Z,20.39
2016-05-18T10:32:02.194Z,20.79
2016-05-18T10:33:02.196Z,21.08
2016-05-18T10:34:02.199Z,20.69
2016-05-18T10:35:02.202Z,21.08
2016-05-18T10:36:02.220Z,20.31
2016-05-18T10:37:02.207Z,20.5
2016-05-18T10:38:02.599Z,19.92
2016-05-18T10:39:02.212Z,19.53
2016-05-18T10:40:02.324Z,20.21
2016-05-18T10:41:02.233Z,20.79
2016-05-18T10:42:02.236Z,20.59
2016-05-18T10:43:02.238Z,20.29
2016-05-18T10:44:02.241Z,19.04
2016-05-18T10:45:02.244Z,18.85
2016-05-18T10:46:02.246Z,18.46
2016-05-18T10:47:02.265Z,19.23
2016-05-18T10:48:02.268Z,19.61
2016-05-18T10:49:02.271Z,20.38
2016-05-18T10:50:02.273Z,20.67
2016-05-18T10:51:02.275Z,21.06
2016-05-18T10:52:02.295Z,20.86
2016-05-18T10:53:02.312Z,20.77
2016-05-18T10:54:02.581Z,20.67
2016-05-18T10:55:02.303Z,20.48
2016-05-18T10:56:02.305Z,20.48
2016-05-18T10:57:02.308Z,20.48
2016-05-18T10:58:02.311Z,20.2
2016-05-18T10:59:02.313Z,20.49
2016-05-18T11:00:02.316Z,19.71
2016-05-18T11:01:02.319Z,19.8
2016-05-18T11:02:02.322Z,20.19
2016-05-18T11:03:02.324Z,19.8
2016-05-18T11:04:02.327Z,19.22
2016-05-18T11:05:02.344Z,18.35
2016-05-18T11:06:02.347Z,18.45
2016-05-18T11:07:02.350Z,18.06
2016-05-18T11:08:02.853Z,18.55
2016-05-18T11:09:02.355Z,18.16
2016-05-18T11:10:02.357Z,18.05
2016-05-18T11:11:02.377Z,18.25
2016-05-18T11:12:02.379Z,18.25
2016-05-18T11:13:02.382Z,18.34
2016-05-18T11:14:02.369Z,19.12
2016-05-18T11:15:02.387Z,18.92
2016-05-18T11:16:02.389Z,18.92
2016-05-18T11:17:02.393Z,19.4
2016-05-18T11:18:02.239Z,19.7
2016-05-18T11:19:02.413Z,20.18
2016-05-18T11:20:02.415Z,20.47
2016-05-18T11:21:02.403Z,20.86
2016-05-18T11:22:02.406Z,21.34
2016-05-18T11:23:02.581Z,21.62
2016-05-18T11:24:02.270Z,21.82
2016-05-18T11:25:02.414Z,21.44
2016-05-18T11:26:02.432Z,21.35
2016-05-18T11:27:02.278Z,21.06
2016-05-18T11:28:02.438Z,20.48
2016-05-18T11:29:02.440Z,20.86
2016-05-18T11:30:02.442Z,20.77
2016-05-18T11:31:02.445Z,20.67
2016-05-18T11:32:02.464Z,20.96
2016-05-18T11:33:02.466Z,20.86
2016-05-18T11:34:02.453Z,21.54
2016-05-18T11:35:02.472Z,21.73
2016-05-18T11:36:02.319Z,22.12
2016-05-18T11:37:02.477Z,22.02
2016-05-18T11:38:02.339Z,22.02
2016-05-18T11:39:02.483Z,21.73
2016-05-18T11:40:02.485Z,21.65
2016-05-18T11:41:02.488Z,21.54
2016-05-18T11:42:02.491Z,21.44
2016-05-18T11:43:02.494Z,21.07
2016-05-18T11:44:02.340Z,20.78
2016-05-18T11:45:02.515Z,20.59
2016-05-18T11:46:02.345Z,19.73
2016-05-18T11:47:02.520Z,19.63
2016-05-18T11:48:02.523Z,19.73
2016-05-18T11:49:02.525Z,20.31
2016-05-18T11:50:02.529Z,19.73
2016-05-18T11:51:02.531Z,19.73
2016-05-18T11:52:02.533Z,19.54
2016-05-18T11:53:03.005Z,19.06
2016-05-18T11:54:02.554Z,19.83
2016-05-18T11:55:02.542Z,19.93
2016-05-18T11:56:02.559Z,20.41
2016-05-18T11:57:02.562Z,19.64
2016-05-18T11:58:02.409Z,19.45
2016-05-18T11:59:02.567Z,19.35
2016-05-18T12:00:02.570Z,19.25
2016-05-18T12:01:02.573Z,19.64
2016-05-18T12:02:02.575Z,19.25
2016-05-18T12:03:02.422Z,19.25
2016-05-18T12:04:02.597Z,19.06
2016-05-18T12:05:02.428Z,18.96
2016-05-18T12:06:02.602Z,18.77
2016-05-18T12:07:02.605Z,19.54
2016-05-18T12:08:02.670Z,19.64
2016-05-18T12:09:02.454Z,19.83
2016-05-18T12:10:02.613Z,20.41
2016-05-18T12:11:02.616Z,19.73
2016-05-18T12:12:02.619Z,19.93
2016-05-18T12:13:02.637Z,19.83
2016-05-18T12:14:02.624Z,20.21
2016-05-18T12:15:02.626Z,20.4
2016-05-18T12:16:02.629Z,20.69
2016-05-18T12:17:02.648Z,20.59
2016-05-18T12:18:02.650Z,20.5
2016-05-18T12:19:02.638Z,20.61
2016-05-18T12:20:02.906Z,20.31
2016-05-18T12:21:02.658Z,20.51
2016-05-18T12:22:02.677Z,20.51
2016-05-18T12:23:03.070Z,19.45
2016-05-18T12:24:02.666Z,19.55
2016-05-18T12:25:06.295Z,18.96
2016-05-18T12:26:02.687Z,18.49
2016-05-18T12:27:02.675Z,18.29
2016-05-18T12:28:02.536Z,18.49
2016-05-18T12:29:02.680Z,18.59
2016-05-18T12:30:08.136Z,18.87
2016-05-18T12:31:02.544Z,19.45
2016-05-18T12:32:02.688Z,19.74
2016-05-18T12:33:02.706Z,19.74
2016-05-18T12:34:02.708Z,19.66
2016-05-18T12:35:02.712Z,19.45
2016-05-18T12:36:02.714Z,19.56
2016-05-18T12:37:02.716Z,18.98
2016-05-18T12:38:02.955Z,18.88
2016-05-18T12:39:02.722Z,18.49
2016-05-18T12:40:03.677Z,18.11
2016-05-18T12:41:02.743Z,18.4
2016-05-18T12:42:02.730Z,17.82
2016-05-18T12:43:02.593Z,17.44
2016-05-18T12:44:02.751Z,17.44
2016-05-18T12:45:02.957Z,17.44
2016-05-18T12:46:02.757Z,17.44
2016-05-18T12:47:02.775Z,17.16
2016-05-18T12:48:02.762Z,17.16
2016-05-18T12:49:02.764Z,16.86
2016-05-18T12:50:05.127Z,17.06
2016-05-18T12:51:02.770Z,16.38
2016-05-18T12:52:02.773Z,16.67
2016-05-18T12:53:03.682Z,15.89
2016-05-18T12:54:02.793Z,16.19
2016-05-18T12:55:03.109Z,16.19
2016-05-18T12:56:02.799Z,16.49
2016-05-18T12:57:02.802Z,16.49
2016-05-18T12:58:02.804Z,16.49
2016-05-18T12:59:02.807Z,16.2
2016-05-18T13:00:02.809Z,16.2
2016-05-18T13:01:02.828Z,15.71
2016-05-18T13:02:02.815Z,15.71
2016-05-18T13:03:02.818Z,15.71
2016-05-18T13:04:02.680Z,15.91
2016-05-18T13:05:02.839Z,16.39
2016-05-18T13:06:02.686Z,15.81
2016-05-18T13:07:02.845Z,15.91
2016-05-18T13:08:02.847Z,15.61
2016-05-18T13:09:02.850Z,15.61
2016-05-18T13:10:07.291Z,16